sensor_id;sensor_type;location;lat;lon;timestamp;temperature;humidity
4390;DHT22;2209;48.982;8.406;2023-04-24T00:02:07;14.70;99.90
4390;DHT22;2209;48.982;8.406;2023-04-24T00:04:31;14.70;99.90
4390;DHT22;2209;48.982;8.406;2023-04-24T00:06:53;14.70;99.90
4390;DHT22;2209;48.982;8.406;2023-04-24T00:09:17;14.70;99.90
4390;DHT22;2209;48.982;8.406;2023-04-24T00:11:40;14.70;99.90
4390;DHT22;2209;48.982;8.406;2023-04-24T00:14:04;14.70;99.90
4390;DHT22;2209;48.982;8.406;2023-04-24T00:16:26;14.70;99.90
4390;DHT22;2209;48.982;8.406;2023-04-24T00:18:48;14.70;99.90
4390;DHT22;2209;48.982;8.406;2023-04-24T00:21:10;14.70;99.90
4390;DHT22;2209;48.982;8.406;2023-04-24T00:23:33;14.70;99.90
4390;DHT22;2209;48.982;8.406;2023-04-24T00:25:55;14.60;99.90
4390;DHT22;2209;48.982;8.406;2023-04-24T00:28:17;14.60;99.90
4390;DHT22;2209;48.982;8.406;2023-04-24T00:30:41;14.70;99.90
4390;DHT22;2209;48.982;8.406;2023-04-24T00:33:03;14.60;99.90
4390;DHT22;2209;48.982;8.406;2023-04-24T00:35:25;14.60;99.90
4390;DHT22;2209;48.982;8.406;2023-04-24T00:37:47;14.60;99.90
4390;DHT22;2209;48.982;8.406;2023-04-24T00:40:11;14.50;99.90
4390;DHT22;2209;48.982;8.406;2023-04-24T00:42:33;14.50;99.90
4390;DHT22;2209;48.982;8.406;2023-04-24T00:44:56;14.50;99.90
4390;DHT22;2209;48.982;8.406;2023-04-24T00:47:20;14.50;99.90
4390;DHT22;2209;48.982;8.406;2023-04-24T00:49:42;14.50;99.90
4390;DHT22;2209;48.982;8.406;2023-04-24T00:52:04;14.40;99.90
4390;DHT22;2209;48.982;8.406;2023-04-24T00:54:29;14.40;99.90
4390;DHT22;2209;48.982;8.406;2023-04-24T00:56:51;14.50;99.90
4390;DHT22;2209;48.982;8.406;2023-04-24T00:59:16;14.50;99.90
4390;DHT22;2209;48.982;8.406;2023-04-24T01:01:39;14.40;99.90
4390;DHT22;2209;48.982;8.406;2023-04-24T01:04:04;14.50;99.90
4390;DHT22;2209;48.982;8.406;2023-04-24T01:06:29;14.40;99.90
4390;DHT22;2209;48.982;8.406;2023-04-24T01:08:51;14.40;99.90
4390;DHT22;2209;48.982;8.406;2023-04-24T01:11:14;14.40;99.90
4390;DHT22;2209;48.982;8.406;2023-04-24T01:13:36;14.30;99.90
4390;DHT22;2209;48.982;8.406;2023-04-24T01:15:59;14.30;99.90
4390;DHT22;2209;48.982;8.406;2023-04-24T01:18:21;14.30;99.90
4390;DHT22;2209;48.982;8.406;2023-04-24T01:20:45;14.20;99.90
4390;DHT22;2209;48.982;8.406;2023-04-24T01:23:09;14.20;99.90
4390;DHT22;2209;48.982;8.406;2023-04-24T01:25:31;14.20;99.90
4390;DHT22;2209;48.982;8.406;2023-04-24T01:27:54;14.30;99.90
4390;DHT22;2209;48.982;8.406;2023-04-24T01:30:16;14.30;99.90
4390;DHT22;2209;48.982;8.406;2023-04-24T01:32:39;14.20;99.90
4390;DHT22;2209;48.982;8.406;2023-04-24T01:35:01;14.20;99.90
4390;DHT22;2209;48.982;8.406;2023-04-24T01:37:24;14.20;99.90
4390;DHT22;2209;48.982;8.406;2023-04-24T01:39:48;14.20;99.90
4390;DHT22;2209;48.982;8.406;2023-04-24T01:42:12;14.20;99.90
4390;DHT22;2209;48.982;8.406;2023-04-24T01:44:35;14.20;99.90
4390;DHT22;2209;48.982;8.406;2023-04-24T01:46:58;14.20;99.90
4390;DHT22;2209;48.982;8.406;2023-04-24T01:49:20;14.20;99.90
4390;DHT22;2209;48.982;8.406;2023-04-24T01:51:42;14.20;99.90
4390;DHT22;2209;48.982;8.406;2023-04-24T01:54:05;14.10;99.90
4390;DHT22;2209;48.982;8.406;2023-04-24T01:56:29;14.20;99.90
4390;DHT22;2209;48.982;8.406;2023-04-24T01:58:52;14.10;99.90
4390;DHT22;2209;48.982;8.406;2023-04-24T02:01:18;14.20;99.90
4390;DHT22;2209;48.982;8.406;2023-04-24T02:03:40;14.10;99.90
4390;DHT22;2209;48.982;8.406;2023-04-24T02:06:03;14.10;99.90
4390;DHT22;2209;48.982;8.406;2023-04-24T02:08:25;14.10;99.90
4390;DHT22;2209;48.982;8.406;2023-04-24T02:10:47;14.10;99.90
4390;DHT22;2209;48.982;8.406;2023-04-24T02:13:11;14.00;99.90
4390;DHT22;2209;48.982;8.406;2023-04-24T02:15:33;14.00;99.90
4390;DHT22;2209;48.982;8.406;2023-04-24T02:17:56;13.90;99.90
4390;DHT22;2209;48.982;8.406;2023-04-24T02:20:18;13.90;99.90
4390;DHT22;2209;48.982;8.406;2023-04-24T02:22:41;13.90;99.90
4390;DHT22;2209;48.982;8.406;2023-04-24T02:25:03;13.90;99.90
4390;DHT22;2209;48.982;8.406;2023-04-24T02:27:25;13.90;99.90
4390;DHT22;2209;48.982;8.406;2023-04-24T02:29:49;13.90;99.90
4390;DHT22;2209;48.982;8.406;2023-04-24T02:32:11;13.90;99.90
4390;DHT22;2209;48.982;8.406;2023-04-24T02:34:33;13.90;99.90
4390;DHT22;2209;48.982;8.406;2023-04-24T02:36:55;13.90;99.90
4390;DHT22;2209;48.982;8.406;2023-04-24T02:39:18;13.90;99.90
4390;DHT22;2209;48.982;8.406;2023-04-24T02:41:40;13.90;99.90
4390;DHT22;2209;48.982;8.406;2023-04-24T02:44:02;13.90;99.90
4390;DHT22;2209;48.982;8.406;2023-04-24T02:46:25;13.90;99.90
4390;DHT22;2209;48.982;8.406;2023-04-24T02:48:47;13.90;99.90
4390;DHT22;2209;48.982;8.406;2023-04-24T02:51:09;13.90;99.90
4390;DHT22;2209;48.982;8.406;2023-04-24T02:53:32;13.80;99.90
4390;DHT22;2209;48.982;8.406;2023-04-24T02:55:54;13.90;99.90
4390;DHT22;2209;48.982;8.406;2023-04-24T02:58:16;13.80;99.90
4390;DHT22;2209;48.982;8.406;2023-04-24T03:00:40;13.80;99.90
4390;DHT22;2209;48.982;8.406;2023-04-24T03:03:04;13.80;99.90
4390;DHT22;2209;48.982;8.406;2023-04-24T03:05:27;13.70;99.90
4390;DHT22;2209;48.982;8.406;2023-04-24T03:07:51;13.60;99.90
4390;DHT22;2209;48.982;8.406;2023-04-24T03:10:14;13.60;99.90
4390;DHT22;2209;48.982;8.406;2023-04-24T03:12:36;13.50;99.90
4390;DHT22;2209;48.982;8.406;2023-04-24T03:14:58;13.50;99.90
4390;DHT22;2209;48.982;8.406;2023-04-24T03:17:20;13.50;99.90
4390;DHT22;2209;48.982;8.406;2023-04-24T03:19:44;13.50;99.90
4390;DHT22;2209;48.982;8.406;2023-04-24T03:22:06;13.50;99.90
4390;DHT22;2209;48.982;8.406;2023-04-24T03:24:29;13.70;99.90
4390;DHT22;2209;48.982;8.406;2023-04-24T03:26:52;13.70;99.90
4390;DHT22;2209;48.982;8.406;2023-04-24T03:29:14;13.60;99.90
4390;DHT22;2209;48.982;8.406;2023-04-24T03:31:36;13.50;99.90
4390;DHT22;2209;48.982;8.406;2023-04-24T03:33:58;13.60;99.90
4390;DHT22;2209;48.982;8.406;2023-04-24T03:36:22;13.70;99.90
4390;DHT22;2209;48.982;8.406;2023-04-24T03:38:44;13.80;99.90
4390;DHT22;2209;48.982;8.406;2023-04-24T03:41:06;13.80;99.90
4390;DHT22;2209;48.982;8.406;2023-04-24T03:43:28;13.80;99.90
4390;DHT22;2209;48.982;8.406;2023-04-24T03:45:50;13.80;99.90
4390;DHT22;2209;48.982;8.406;2023-04-24T03:48:12;13.80;99.90
4390;DHT22;2209;48.982;8.406;2023-04-24T03:50:34;13.70;99.90
4390;DHT22;2209;48.982;8.406;2023-04-24T03:52:58;13.60;99.90
4390;DHT22;2209;48.982;8.406;2023-04-24T03:55:20;13.50;99.90
4390;DHT22;2209;48.982;8.406;2023-04-24T03:57:42;13.40;99.90
4390;DHT22;2209;48.982;8.406;2023-04-24T04:00:06;13.40;99.90
4390;DHT22;2209;48.982;8.406;2023-04-24T04:02:29;13.40;99.90
4390;DHT22;2209;48.982;8.406;2023-04-24T04:04:51;13.30;99.90
4390;DHT22;2209;48.982;8.406;2023-04-24T04:07:15;13.30;99.90
4390;DHT22;2209;48.982;8.406;2023-04-24T04:09:39;13.30;99.90
4390;DHT22;2209;48.982;8.406;2023-04-24T04:12:01;13.30;99.90
4390;DHT22;2209;48.982;8.406;2023-04-24T04:14:23;13.30;99.90
4390;DHT22;2209;48.982;8.406;2023-04-24T04:16:46;13.40;99.90
4390;DHT22;2209;48.982;8.406;2023-04-24T04:19:08;13.40;99.90
4390;DHT22;2209;48.982;8.406;2023-04-24T04:21:30;13.30;99.90
4390;DHT22;2209;48.982;8.406;2023-04-24T04:23:52;13.20;99.90
4390;DHT22;2209;48.982;8.406;2023-04-24T04:26:16;13.20;99.90
4390;DHT22;2209;48.982;8.406;2023-04-24T04:28:41;13.10;99.90
4390;DHT22;2209;48.982;8.406;2023-04-24T04:31:05;13.10;99.90
4390;DHT22;2209;48.982;8.406;2023-04-24T04:33:28;13.00;99.90
4390;DHT22;2209;48.982;8.406;2023-04-24T04:35:50;12.90;99.90
4390;DHT22;2209;48.982;8.406;2023-04-24T04:38:16;12.90;99.90
4390;DHT22;2209;48.982;8.406;2023-04-24T04:40:38;12.80;99.90
4390;DHT22;2209;48.982;8.406;2023-04-24T04:43:02;12.80;99.90
4390;DHT22;2209;48.982;8.406;2023-04-24T04:45:24;12.70;99.90
4390;DHT22;2209;48.982;8.406;2023-04-24T04:47:51;12.70;99.90
4390;DHT22;2209;48.982;8.406;2023-04-24T04:50:13;12.80;99.90
4390;DHT22;2209;48.982;8.406;2023-04-24T04:52:37;12.90;99.90
4390;DHT22;2209;48.982;8.406;2023-04-24T04:54:59;13.00;99.90
4390;DHT22;2209;48.982;8.406;2023-04-24T04:57:21;13.10;99.90
4390;DHT22;2209;48.982;8.406;2023-04-24T04:59:45;13.20;99.90
4390;DHT22;2209;48.982;8.406;2023-04-24T05:02:07;13.20;99.90
4390;DHT22;2209;48.982;8.406;2023-04-24T05:04:29;13.10;99.90
4390;DHT22;2209;48.982;8.406;2023-04-24T05:06:52;13.00;99.90
4390;DHT22;2209;48.982;8.406;2023-04-24T05:09:14;13.10;99.90
4390;DHT22;2209;48.982;8.406;2023-04-24T05:11:36;13.00;99.90
4390;DHT22;2209;48.982;8.406;2023-04-24T05:13:58;13.00;99.90
4390;DHT22;2209;48.982;8.406;2023-04-24T05:16:22;13.00;99.90
4390;DHT22;2209;48.982;8.406;2023-04-24T05:18:44;13.00;99.90
4390;DHT22;2209;48.982;8.406;2023-04-24T05:21:06;13.10;99.90
4390;DHT22;2209;48.982;8.406;2023-04-24T05:23:28;13.20;99.90
4390;DHT22;2209;48.982;8.406;2023-04-24T05:25:51;13.20;99.90
4390;DHT22;2209;48.982;8.406;2023-04-24T05:28:13;13.30;99.90
4390;DHT22;2209;48.982;8.406;2023-04-24T05:30:36;13.20;99.90
4390;DHT22;2209;48.982;8.406;2023-04-24T05:32:59;13.10;99.90
4390;DHT22;2209;48.982;8.406;2023-04-24T05:35:21;13.00;99.90
4390;DHT22;2209;48.982;8.406;2023-04-24T05:37:43;13.00;99.90
4390;DHT22;2209;48.982;8.406;2023-04-24T05:40:06;12.90;99.90
4390;DHT22;2209;48.982;8.406;2023-04-24T05:42:29;12.90;99.90
4390;DHT22;2209;48.982;8.406;2023-04-24T05:44:51;12.80;99.90
4390;DHT22;2209;48.982;8.406;2023-04-24T05:47:15;12.80;99.90
4390;DHT22;2209;48.982;8.406;2023-04-24T05:49:38;12.80;99.90
4390;DHT22;2209;48.982;8.406;2023-04-24T05:52:00;12.80;99.90
4390;DHT22;2209;48.982;8.406;2023-04-24T05:54:24;12.90;99.90
4390;DHT22;2209;48.982;8.406;2023-04-24T05:56:46;12.80;99.90
4390;DHT22;2209;48.982;8.406;2023-04-24T05:59:09;12.80;99.90
4390;DHT22;2209;48.982;8.406;2023-04-24T06:01:31;12.80;99.90
4390;DHT22;2209;48.982;8.406;2023-04-24T06:03:53;12.80;99.90
4390;DHT22;2209;48.982;8.406;2023-04-24T06:06:16;12.70;99.90
4390;DHT22;2209;48.982;8.406;2023-04-24T06:08:40;12.60;99.90
4390;DHT22;2209;48.982;8.406;2023-04-24T06:11:03;12.70;99.90
4390;DHT22;2209;48.982;8.406;2023-04-24T06:13:25;12.60;99.90
4390;DHT22;2209;48.982;8.406;2023-04-24T06:15:47;12.60;99.90
4390;DHT22;2209;48.982;8.406;2023-04-24T06:18:09;12.60;99.90
4390;DHT22;2209;48.982;8.406;2023-04-24T06:20:31;12.70;99.90
4390;DHT22;2209;48.982;8.406;2023-04-24T06:22:55;12.70;99.90
4390;DHT22;2209;48.982;8.406;2023-04-24T06:25:17;12.60;99.90
4390;DHT22;2209;48.982;8.406;2023-04-24T06:27:39;12.60;99.90
4390;DHT22;2209;48.982;8.406;2023-04-24T06:30:02;12.60;99.90
4390;DHT22;2209;48.982;8.406;2023-04-24T06:32:24;12.70;99.90
4390;DHT22;2209;48.982;8.406;2023-04-24T06:34:48;12.80;99.90
4390;DHT22;2209;48.982;8.406;2023-04-24T06:37:10;12.70;99.90
4390;DHT22;2209;48.982;8.406;2023-04-24T06:39:33;12.70;99.90
4390;DHT22;2209;48.982;8.406;2023-04-24T06:41:55;12.70;99.90
4390;DHT22;2209;48.982;8.406;2023-04-24T06:44:17;12.70;99.90
4390;DHT22;2209;48.982;8.406;2023-04-24T06:46:39;12.80;99.90
4390;DHT22;2209;48.982;8.406;2023-04-24T06:49:02;12.90;99.90
4390;DHT22;2209;48.982;8.406;2023-04-24T06:51:24;12.90;99.90
4390;DHT22;2209;48.982;8.406;2023-04-24T06:53:46;12.90;99.90
4390;DHT22;2209;48.982;8.406;2023-04-24T06:56:10;12.80;99.90
4390;DHT22;2209;48.982;8.406;2023-04-24T06:58:32;12.80;99.90
4390;DHT22;2209;48.982;8.406;2023-04-24T07:00:54;12.70;99.90
4390;DHT22;2209;48.982;8.406;2023-04-24T07:03:16;12.60;99.90
4390;DHT22;2209;48.982;8.406;2023-04-24T07:05:38;12.50;99.90
4390;DHT22;2209;48.982;8.406;2023-04-24T07:08:00;12.50;99.90
4390;DHT22;2209;48.982;8.406;2023-04-24T07:10:23;12.50;99.90
4390;DHT22;2209;48.982;8.406;2023-04-24T07:12:46;12.40;99.90
4390;DHT22;2209;48.982;8.406;2023-04-24T07:15:09;12.40;99.90
4390;DHT22;2209;48.982;8.406;2023-04-24T07:17:32;12.30;99.90
4390;DHT22;2209;48.982;8.406;2023-04-24T07:19:54;12.40;99.90
4390;DHT22;2209;48.982;8.406;2023-04-24T07:22:17;12.40;99.90
4390;DHT22;2209;48.982;8.406;2023-04-24T07:24:39;12.50;99.90
4390;DHT22;2209;48.982;8.406;2023-04-24T07:27:01;12.50;99.90
4390;DHT22;2209;48.982;8.406;2023-04-24T07:29:25;12.50;99.90
4390;DHT22;2209;48.982;8.406;2023-04-24T07:31:47;12.50;99.90
4390;DHT22;2209;48.982;8.406;2023-04-24T07:34:09;12.50;99.90
4390;DHT22;2209;48.982;8.406;2023-04-24T07:36:31;12.60;99.90
4390;DHT22;2209;48.982;8.406;2023-04-24T07:38:54;12.60;99.90
4390;DHT22;2209;48.982;8.406;2023-04-24T07:41:17;12.60;99.90
4390;DHT22;2209;48.982;8.406;2023-04-24T07:43:39;12.60;99.90
4390;DHT22;2209;48.982;8.406;2023-04-24T07:46:02;12.60;99.90
4390;DHT22;2209;48.982;8.406;2023-04-24T07:48:24;12.60;99.90
4390;DHT22;2209;48.982;8.406;2023-04-24T07:50:47;12.60;99.90
4390;DHT22;2209;48.982;8.406;2023-04-24T07:53:09;12.50;99.90
4390;DHT22;2209;48.982;8.406;2023-04-24T07:55:31;12.50;99.90
4390;DHT22;2209;48.982;8.406;2023-04-24T07:57:53;12.50;99.90
4390;DHT22;2209;48.982;8.406;2023-04-24T08:00:16;12.50;99.90
4390;DHT22;2209;48.982;8.406;2023-04-24T08:02:39;12.50;99.90
4390;DHT22;2209;48.982;8.406;2023-04-24T08:05:01;12.50;99.90
4390;DHT22;2209;48.982;8.406;2023-04-24T08:07:24;12.40;99.90
4390;DHT22;2209;48.982;8.406;2023-04-24T08:09:46;12.50;99.90
4390;DHT22;2209;48.982;8.406;2023-04-24T08:12:08;12.60;99.90
4390;DHT22;2209;48.982;8.406;2023-04-24T08:14:30;12.60;99.90
4390;DHT22;2209;48.982;8.406;2023-04-24T08:16:54;12.70;99.90
4390;DHT22;2209;48.982;8.406;2023-04-24T08:19:18;12.70;99.90
4390;DHT22;2209;48.982;8.406;2023-04-24T08:21:40;12.70;99.90
4390;DHT22;2209;48.982;8.406;2023-04-24T08:24:02;12.60;99.90
4390;DHT22;2209;48.982;8.406;2023-04-24T08:26:26;12.50;99.90
4390;DHT22;2209;48.982;8.406;2023-04-24T08:28:48;12.40;99.90
4390;DHT22;2209;48.982;8.406;2023-04-24T08:31:10;12.40;99.90
4390;DHT22;2209;48.982;8.406;2023-04-24T08:33:32;12.20;99.90
4390;DHT22;2209;48.982;8.406;2023-04-24T08:35:56;12.10;99.90
4390;DHT22;2209;48.982;8.406;2023-04-24T08:38:18;12.10;99.90
4390;DHT22;2209;48.982;8.406;2023-04-24T08:40:40;12.20;99.90
4390;DHT22;2209;48.982;8.406;2023-04-24T08:43:03;12.20;99.90
4390;DHT22;2209;48.982;8.406;2023-04-24T08:45:25;12.20;99.90
4390;DHT22;2209;48.982;8.406;2023-04-24T08:47:47;12.20;99.90
4390;DHT22;2209;48.982;8.406;2023-04-24T08:50:10;12.20;99.90
4390;DHT22;2209;48.982;8.406;2023-04-24T08:52:34;12.00;99.90
4390;DHT22;2209;48.982;8.406;2023-04-24T08:54:57;12.10;99.90
4390;DHT22;2209;48.982;8.406;2023-04-24T08:57:19;12.10;99.90
4390;DHT22;2209;48.982;8.406;2023-04-24T08:59:42;12.10;99.90
4390;DHT22;2209;48.982;8.406;2023-04-24T09:02:05;12.30;99.90
4390;DHT22;2209;48.982;8.406;2023-04-24T09:04:28;12.30;99.90
4390;DHT22;2209;48.982;8.406;2023-04-24T09:06:51;12.40;99.90
4390;DHT22;2209;48.982;8.406;2023-04-24T09:09:16;12.40;99.90
4390;DHT22;2209;48.982;8.406;2023-04-24T09:11:40;12.40;99.90
4390;DHT22;2209;48.982;8.406;2023-04-24T09:14:02;12.40;99.90
4390;DHT22;2209;48.982;8.406;2023-04-24T09:16:25;12.40;99.90
4390;DHT22;2209;48.982;8.406;2023-04-24T09:18:47;12.40;99.90
4390;DHT22;2209;48.982;8.406;2023-04-24T09:21:10;12.30;99.90
4390;DHT22;2209;48.982;8.406;2023-04-24T09:23:32;12.40;99.90
4390;DHT22;2209;48.982;8.406;2023-04-24T09:25:56;12.40;99.90
4390;DHT22;2209;48.982;8.406;2023-04-24T09:28:18;12.30;99.90
4390;DHT22;2209;48.982;8.406;2023-04-24T09:30:40;12.30;99.90
4390;DHT22;2209;48.982;8.406;2023-04-24T09:33:12;12.40;99.90
4390;DHT22;2209;48.982;8.406;2023-04-24T09:35:35;12.40;99.90
4390;DHT22;2209;48.982;8.406;2023-04-24T09:37:57;12.40;99.90
4390;DHT22;2209;48.982;8.406;2023-04-24T09:40:21;12.50;99.90
4390;DHT22;2209;48.982;8.406;2023-04-24T09:42:46;12.40;99.90
4390;DHT22;2209;48.982;8.406;2023-04-24T09:45:09;12.40;99.90
4390;DHT22;2209;48.982;8.406;2023-04-24T09:47:36;12.40;99.90
4390;DHT22;2209;48.982;8.406;2023-04-24T09:49:58;12.30;99.90
4390;DHT22;2209;48.982;8.406;2023-04-24T09:52:20;12.30;99.90
4390;DHT22;2209;48.982;8.406;2023-04-24T09:54:52;12.30;99.90
4390;DHT22;2209;48.982;8.406;2023-04-24T09:57:15;12.40;99.90
4390;DHT22;2209;48.982;8.406;2023-04-24T09:59:42;12.40;99.90
4390;DHT22;2209;48.982;8.406;2023-04-24T10:02:17;12.40;99.90
4390;DHT22;2209;48.982;8.406;2023-04-24T10:04:39;12.40;99.90
4390;DHT22;2209;48.982;8.406;2023-04-24T10:07:03;12.40;99.90
4390;DHT22;2209;48.982;8.406;2023-04-24T10:09:27;12.40;99.90
4390;DHT22;2209;48.982;8.406;2023-04-24T10:11:51;12.40;99.90
4390;DHT22;2209;48.982;8.406;2023-04-24T10:14:16;12.40;99.90
4390;DHT22;2209;48.982;8.406;2023-04-24T10:16:42;12.40;99.90
4390;DHT22;2209;48.982;8.406;2023-04-24T10:19:04;12.40;99.90
4390;DHT22;2209;48.982;8.406;2023-04-24T10:21:27;12.40;99.90
4390;DHT22;2209;48.982;8.406;2023-04-24T10:23:49;12.40;99.90
4390;DHT22;2209;48.982;8.406;2023-04-24T10:26:13;12.40;99.90
4390;DHT22;2209;48.982;8.406;2023-04-24T10:28:39;12.40;99.90
4390;DHT22;2209;48.982;8.406;2023-04-24T10:31:03;12.30;99.90
4390;DHT22;2209;48.982;8.406;2023-04-24T10:33:27;12.20;99.90
4390;DHT22;2209;48.982;8.406;2023-04-24T10:35:50;12.30;99.90
4390;DHT22;2209;48.982;8.406;2023-04-24T10:38:15;12.30;99.90
4390;DHT22;2209;48.982;8.406;2023-04-24T10:40:38;12.30;99.90
4390;DHT22;2209;48.982;8.406;2023-04-24T10:43:02;12.40;99.90
4390;DHT22;2209;48.982;8.406;2023-04-24T10:45:27;12.40;99.90
4390;DHT22;2209;48.982;8.406;2023-04-24T10:47:59;12.40;99.90
4390;DHT22;2209;48.982;8.406;2023-04-24T10:50:23;12.40;99.90
4390;DHT22;2209;48.982;8.406;2023-04-24T10:52:46;12.40;99.90
4390;DHT22;2209;48.982;8.406;2023-04-24T10:55:08;12.40;99.90
4390;DHT22;2209;48.982;8.406;2023-04-24T10:57:30;12.40;99.90
4390;DHT22;2209;48.982;8.406;2023-04-24T11:00:10;12.40;99.90
4390;DHT22;2209;48.982;8.406;2023-04-24T11:02:36;12.40;99.90
4390;DHT22;2209;48.982;8.406;2023-04-24T11:05:03;12.50;99.90
4390;DHT22;2209;48.982;8.406;2023-04-24T11:07:26;12.40;99.90
4390;DHT22;2209;48.982;8.406;2023-04-24T11:09:58;12.40;99.90
4390;DHT22;2209;48.982;8.406;2023-04-24T11:12:21;12.40;99.90
4390;DHT22;2209;48.982;8.406;2023-04-24T11:15:01;12.30;99.90
4390;DHT22;2209;48.982;8.406;2023-04-24T11:17:30;12.30;99.90
4390;DHT22;2209;48.982;8.406;2023-04-24T11:19:52;12.30;99.90
4390;DHT22;2209;48.982;8.406;2023-04-24T11:22:23;12.40;99.90
4390;DHT22;2209;48.982;8.406;2023-04-24T11:24:50;12.40;99.90
4390;DHT22;2209;48.982;8.406;2023-04-24T11:27:16;12.50;99.90
4390;DHT22;2209;48.982;8.406;2023-04-24T11:29:46;12.50;99.90
4390;DHT22;2209;48.982;8.406;2023-04-24T11:32:18;12.60;99.90
4390;DHT22;2209;48.982;8.406;2023-04-24T11:34:41;12.70;99.90
4390;DHT22;2209;48.982;8.406;2023-04-24T11:37:07;12.80;99.90
4390;DHT22;2209;48.982;8.406;2023-04-24T11:39:36;12.80;99.90
4390;DHT22;2209;48.982;8.406;2023-04-24T11:42:03;12.70;99.90
4390;DHT22;2209;48.982;8.406;2023-04-24T11:44:28;12.60;99.90
4390;DHT22;2209;48.982;8.406;2023-04-24T11:46:52;12.50;99.90
4390;DHT22;2209;48.982;8.406;2023-04-24T11:49:17;12.40;99.90
4390;DHT22;2209;48.982;8.406;2023-04-24T11:51:39;12.30;99.90
4390;DHT22;2209;48.982;8.406;2023-04-24T11:54:01;12.30;99.90
4390;DHT22;2209;48.982;8.406;2023-04-24T11:56:24;12.20;99.90
4390;DHT22;2209;48.982;8.406;2023-04-24T11:58:47;12.20;99.90
4390;DHT22;2209;48.982;8.406;2023-04-24T12:01:10;12.20;99.90
4390;DHT22;2209;48.982;8.406;2023-04-24T12:03:32;12.30;99.90
4390;DHT22;2209;48.982;8.406;2023-04-24T12:06:04;12.20;99.90
4390;DHT22;2209;48.982;8.406;2023-04-24T12:08:27;12.10;99.90
4390;DHT22;2209;48.982;8.406;2023-04-24T12:10:51;12.10;99.90
4390;DHT22;2209;48.982;8.406;2023-04-24T12:13:13;12.10;99.90
4390;DHT22;2209;48.982;8.406;2023-04-24T12:15:40;12.10;99.90
4390;DHT22;2209;48.982;8.406;2023-04-24T12:18:03;12.10;99.90
4390;DHT22;2209;48.982;8.406;2023-04-24T12:20:27;12.20;99.90
4390;DHT22;2209;48.982;8.406;2023-04-24T12:22:51;12.30;99.90
4390;DHT22;2209;48.982;8.406;2023-04-24T12:25:16;12.30;99.90
4390;DHT22;2209;48.982;8.406;2023-04-24T12:27:38;12.30;99.90
4390;DHT22;2209;48.982;8.406;2023-04-24T12:30:02;12.30;99.90
4390;DHT22;2209;48.982;8.406;2023-04-24T12:32:26;12.30;99.90
4390;DHT22;2209;48.982;8.406;2023-04-24T12:34:49;12.30;99.90
4390;DHT22;2209;48.982;8.406;2023-04-24T12:37:11;12.30;99.90
4390;DHT22;2209;48.982;8.406;2023-04-24T12:39:33;12.40;99.90
4390;DHT22;2209;48.982;8.406;2023-04-24T12:41:56;12.40;99.90
4390;DHT22;2209;48.982;8.406;2023-04-24T12:44:18;12.50;99.90
4390;DHT22;2209;48.982;8.406;2023-04-24T12:46:40;12.60;99.90
4390;DHT22;2209;48.982;8.406;2023-04-24T12:49:04;12.70;99.90
4390;DHT22;2209;48.982;8.406;2023-04-24T12:51:26;12.80;99.90
4390;DHT22;2209;48.982;8.406;2023-04-24T12:53:48;12.80;99.90
4390;DHT22;2209;48.982;8.406;2023-04-24T12:56:10;12.80;99.90
4390;DHT22;2209;48.982;8.406;2023-04-24T12:58:32;12.90;99.90
4390;DHT22;2209;48.982;8.406;2023-04-24T13:00:54;12.90;99.90
4390;DHT22;2209;48.982;8.406;2023-04-24T13:03:16;12.90;99.90
4390;DHT22;2209;48.982;8.406;2023-04-24T13:05:41;12.90;99.90
4390;DHT22;2209;48.982;8.406;2023-04-24T13:08:03;12.90;99.90
4390;DHT22;2209;48.982;8.406;2023-04-24T13:10:25;12.90;99.90
4390;DHT22;2209;48.982;8.406;2023-04-24T13:12:47;12.90;99.90
4390;DHT22;2209;48.982;8.406;2023-04-24T13:15:10;12.90;99.90
4390;DHT22;2209;48.982;8.406;2023-04-24T13:17:32;12.90;99.90
4390;DHT22;2209;48.982;8.406;2023-04-24T13:19:55;12.90;99.90
4390;DHT22;2209;48.982;8.406;2023-04-24T13:22:18;12.80;99.90
4390;DHT22;2209;48.982;8.406;2023-04-24T13:24:40;12.80;99.90
4390;DHT22;2209;48.982;8.406;2023-04-24T13:27:02;12.80;99.90
4390;DHT22;2209;48.982;8.406;2023-04-24T13:29:24;12.90;99.90
4390;DHT22;2209;48.982;8.406;2023-04-24T13:31:46;13.00;99.90
4390;DHT22;2209;48.982;8.406;2023-04-24T13:34:10;13.10;99.90
4390;DHT22;2209;48.982;8.406;2023-04-24T13:36:32;13.20;99.90
4390;DHT22;2209;48.982;8.406;2023-04-24T13:38:55;13.30;99.90
4390;DHT22;2209;48.982;8.406;2023-04-24T13:41:17;13.40;99.90
4390;DHT22;2209;48.982;8.406;2023-04-24T13:43:39;13.40;99.90
4390;DHT22;2209;48.982;8.406;2023-04-24T13:46:02;13.50;99.90
4390;DHT22;2209;48.982;8.406;2023-04-24T13:48:24;13.60;99.90
4390;DHT22;2209;48.982;8.406;2023-04-24T13:50:46;13.70;99.90
4390;DHT22;2209;48.982;8.406;2023-04-24T13:53:10;13.70;99.90
4390;DHT22;2209;48.982;8.406;2023-04-24T13:55:33;13.70;99.90
4390;DHT22;2209;48.982;8.406;2023-04-24T13:57:55;13.60;99.90
4390;DHT22;2209;48.982;8.406;2023-04-24T14:00:18;13.60;99.90
4390;DHT22;2209;48.982;8.406;2023-04-24T14:02:41;13.60;99.90
4390;DHT22;2209;48.982;8.406;2023-04-24T14:05:03;13.60;99.90
4390;DHT22;2209;48.982;8.406;2023-04-24T14:07:28;13.50;99.90
4390;DHT22;2209;48.982;8.406;2023-04-24T14:09:50;13.50;99.90
4390;DHT22;2209;48.982;8.406;2023-04-24T14:12:13;13.40;99.90
4390;DHT22;2209;48.982;8.406;2023-04-24T14:14:37;13.40;99.90
4390;DHT22;2209;48.982;8.406;2023-04-24T14:16:59;13.30;99.90
4390;DHT22;2209;48.982;8.406;2023-04-24T14:19:21;13.30;99.90
4390;DHT22;2209;48.982;8.406;2023-04-24T14:21:43;13.20;99.90
4390;DHT22;2209;48.982;8.406;2023-04-24T14:24:05;13.20;99.90
4390;DHT22;2209;48.982;8.406;2023-04-24T14:26:27;13.30;99.90
4390;DHT22;2209;48.982;8.406;2023-04-24T14:28:51;13.30;99.90
4390;DHT22;2209;48.982;8.406;2023-04-24T14:31:13;13.40;99.90
4390;DHT22;2209;48.982;8.406;2023-04-24T14:33:35;13.40;99.90
4390;DHT22;2209;48.982;8.406;2023-04-24T14:35:57;13.50;99.90
4390;DHT22;2209;48.982;8.406;2023-04-24T14:38:20;13.60;99.90
4390;DHT22;2209;48.982;8.406;2023-04-24T14:40:42;13.70;99.90
4390;DHT22;2209;48.982;8.406;2023-04-24T14:43:04;13.80;99.90
4390;DHT22;2209;48.982;8.406;2023-04-24T14:45:27;13.90;99.90
4390;DHT22;2209;48.982;8.406;2023-04-24T14:47:50;14.10;99.90
4390;DHT22;2209;48.982;8.406;2023-04-24T14:50:12;14.10;99.90
4390;DHT22;2209;48.982;8.406;2023-04-24T14:52:34;14.20;99.90
4390;DHT22;2209;48.982;8.406;2023-04-24T14:54:56;14.30;99.90
4390;DHT22;2209;48.982;8.406;2023-04-24T14:57:18;14.40;99.90
4390;DHT22;2209;48.982;8.406;2023-04-24T14:59:40;14.40;99.90
4390;DHT22;2209;48.982;8.406;2023-04-24T15:02:04;14.30;99.90
4390;DHT22;2209;48.982;8.406;2023-04-24T15:04:27;14.20;99.90
4390;DHT22;2209;48.982;8.406;2023-04-24T15:06:49;14.10;99.90
4390;DHT22;2209;48.982;8.406;2023-04-24T15:09:11;14.10;99.90
4390;DHT22;2209;48.982;8.406;2023-04-24T15:11:33;14.00;99.90
4390;DHT22;2209;48.982;8.406;2023-04-24T15:13:55;13.90;99.90
4390;DHT22;2209;48.982;8.406;2023-04-24T15:16:17;13.90;99.90
4390;DHT22;2209;48.982;8.406;2023-04-24T15:18:41;13.80;99.90
4390;DHT22;2209;48.982;8.406;2023-04-24T15:21:03;13.80;99.90
4390;DHT22;2209;48.982;8.406;2023-04-24T15:23:25;13.70;99.90
4390;DHT22;2209;48.982;8.406;2023-04-24T15:25:47;13.80;99.90
4390;DHT22;2209;48.982;8.406;2023-04-24T15:28:09;13.70;99.90
4390;DHT22;2209;48.982;8.406;2023-04-24T15:30:32;13.70;99.90
4390;DHT22;2209;48.982;8.406;2023-04-24T15:32:54;13.70;99.90
4390;DHT22;2209;48.982;8.406;2023-04-24T15:35:17;13.60;99.90